Aloha, Oregon
Current Conditions -  °F | °C
As of 7:53 AM on Friday 21 Nov 2014 (Local Time) from KHIO Reporting Station
Overcast Overcast  
Wind Chill: 45°   Ceiling: 3600
Heat Index: 45°   Visibility: 10mi
Dew Point: 44°   Wind: 3mph
Humidity: 97%   Direction: 110°ESE
Pressure: 29.81"   Gusts: NA
Location:  45.49°N, 122.86°W
Report Text: KHIO 211553Z 11003KT 10SM OVC036 07/07 A2981 RMK AO2 SLP097 T00720067
Loading
Personal Weather Stations






























Interactive Weather Map New forecast layout! Learn more

10-Day Weather Forecast

Advertisements
Track Severe Weather on mobile